Flight Track Log - Related Links

Times and Time Zones

All times are in EDT time to prevent confusion due to time zone crossing. See the UAL1650 flight status page for this flight to view local times or setup timezone preferences in your user account.

Time Position Orientation Groundspeed Altitude Reporting Facility
EDT Latitude Longitude Course Direction KTS MPH feet Rate Location/Type
12:26PM 37.6500 -122.4333 132° Southeast 183 211 2,300  Level Northern Cal TRACON
12:27PM 37.6667 -122.5000 288° West 218 251 4,900 2,644 Climbing Northern Cal TRACON
12:28PM 37.6425 -122.5578 242° Southwest 249 287 7,500 2,773 Climbing Oakland Center
12:29PM 37.5644 -122.5222 160° South 305 351 10,400 2,557 Climbing Oakland Center
12:30PM 37.4778 -122.4681 154° Southeast 352 405 12,700 2,066 Climbing Oakland Center
12:31PM 37.1861 -122.0072 132° Southeast  Level FlightAware Approximate
12:31PM 37.3975 -122.3822 140° Southeast 395 455 14,600  Level Oakland Center
12:32PM 37.3242 -122.2647 128° Southeast 428 493 16,600 2,146 Climbing Oakland Center
12:33PM 37.2464 -122.1447 129° Southeast 439 505 19,000 2,195 Climbing Oakland Center
12:34PM 37.1661 -122.0200 129° Southeast 457 526 21,100 2,016 Climbing Oakland Center
12:35PM 37.0828 -121.8928 129° Southeast 471 542 23,100 1,918 Climbing Oakland Center
12:36PM 36.9972 -121.7650 130° Southeast 480 552 25,000 1,672 Climbing Oakland Center
12:37PM 36.9097 -121.6333 130° Southeast 489 563 26,500 1,623 Climbing Oakland Center
12:38PM 36.8044 -121.4733 129° Southeast 503 579 28,300 1,463 Climbing Oakland Center
12:39PM 36.7131 -121.3322 129° Southeast 518 596 29,500 1,171 Climbing Oakland Center
12:40PM 36.6194 -121.1914 130° Southeast 523 602 30,700 1,131 Climbing Oakland Center
12:41PM 36.5247 -121.0469 129° Southeast 537 618 31,800 1,279 Climbing Oakland Center
12:42PM 36.4294 -120.9031 129° Southeast 537 618 33,300 1,279 Climbing Oakland Center
12:43PM 36.3350 -120.7597 129° Southeast 537 618 34,400 984 Climbing Oakland Center
12:44PM 36.2386 -120.6189 130° Southeast 537 618 35,300 878 Climbing Oakland Center
12:45PM 36.1414 -120.4761 130° Southeast 537 618 36,200 780 Climbing Oakland Center
12:46PM 36.0456 -120.3333 130° Southeast 537 618 36,900 344 Climbing Oakland Center
12:47PM 35.9486 -120.1897 130° Southeast 537 618 36,900  Level Oakland Center
12:48PM 35.8522 -120.0492 130° Southeast 536 617 36,900  Level Oakland Center
12:49PM 35.7567 -119.9089 130° Southeast 534 615 36,900  Level Oakland Center
12:50PM 35.6419 -119.7431 130° Southeast 531 611 36,900 49 Level Oakland Center
12:51PM 35.5469 -119.6036 130° Southeast 530 610 37,000 49 Climbing Oakland Center
12:52PM 35.4497 -119.4653 131° Southeast 530 610 37,000  Level Oakland Center
12:53PM 35.3364 -119.3017 130° Southeast 527 606 37,000  Level Los Angeles Center
12:55PM 35.2400 -119.1664 131° Southeast 527 606 37,000  Level Los Angeles Center
12:56PM 35.1444 -119.0297 131° Southeast 527 606 37,000  Level Los Angeles Center
12:57PM 35.0464 -118.8953 132° Southeast 527 606 37,000  Level Los Angeles Center
12:58PM 34.9517 -118.7614 131° Southeast 527 606 37,000  Level Los Angeles Center
12:59PM 34.8514 -118.6194 131° Southeast 526 605 37,000  Level Los Angeles Center
01:00PM 34.7819 -118.4403 115° Southeast 531 611 37,000  Level Los Angeles Center
01:01PM 34.7328 -118.2769 110° East 520 598 37,000  Level Los Angeles Center
01:02PM 34.6828 -118.1136 110° East 520 598 37,000  Level Los Angeles Center
01:03PM 34.6319 -117.9492 111° Southeast 522 601 37,000  Level Los Angeles Center
01:04PM 34.5703 -117.7522 111° Southeast 525 604 37,000  Level Los Angeles Center
01:05PM 34.5200 -117.5875 110° East 527 606 37,000  Level Los Angeles Center
01:06PM 34.4683 -117.4222 111° Southeast 528 608 37,000  Level Los Angeles Center
01:07PM 34.4158 -117.2567 111° Southeast 530 610 37,000  Level Los Angeles Center
01:08PM 34.3647 -117.0928 111° Southeast 528 608 37,000  Level Los Angeles Center
01:09PM 34.3017 -116.8942 111° Southeast 529 609 37,000  Level Los Angeles Center
01:10PM 34.2475 -116.7286 112° Southeast 531 611 37,000  Level Los Angeles Center
01:11PM 34.1950 -116.5644 111° Southeast 527 606 37,000  Level Los Angeles Center
01:12PM 34.1419 -116.3950 111° Southeast 540 621 37,000  Level Los Angeles Center
01:13PM 34.0819 -116.2128 112° Southeast 527 606 37,000 -48 Level Los Angeles Center
01:14PM 34.0278 -116.0508 112° Southeast 525 604 36,900 -48 Descending Los Angeles Center
01:15PM 33.9753 -115.8864 111° Southeast 525 604 36,900 48 Level Los Angeles Center
01:16PM 33.9189 -115.7178 112° Southeast 534 615 37,000 48 Climbing Los Angeles Center
01:17PM 33.8642 -115.5553 112° Southeast 528 608 37,000  Level Los Angeles Center
01:18PM 33.7969 -115.3603 112° Southeast 527 606 37,000  Level Los Angeles Center
01:19PM 33.7433 -115.1981 112° Southeast 527 606 37,000 -48 Level Los Angeles Center
01:20PM 33.6936 -115.0356 110° East 522 601 36,900  Descending Los Angeles Center
01:21PM 33.6661 -114.8661 101° East 522 601 37,000 48 Climbing Los Angeles Center
01:22PM 33.6358 -114.6972 102° East 520 598 37,000 -48 Level Los Angeles Center
01:24PM 33.6064 -114.5283 102° East 519 597 36,900  Descending Los Angeles Center
01:25PM 33.5686 -114.3256 103° East 519 597 37,000 48 Climbing Los Angeles Center
01:26PM 33.5383 -114.1569 102° East 519 597 37,000  Level Los Angeles Center
01:26PM 33.5261 -114.0925 103° East 517 595 37,000  Level Albuquerque Center
01:27PM 33.4892 -113.8903 102° East 518 596 37,000  Level Albuquerque Center
01:28PM 33.4581 -113.7211 102° East 518 596 37,000 -48 Level Albuquerque Center
01:29PM 33.4286 -113.5486 102° East 521 600 36,900 -48 Descending Albuquerque Center
01:30PM 33.3947 -113.3828 104° East 520 598 36,900 48 Level Albuquerque Center
01:31PM 33.3642 -113.2164 102° East 517 595 37,000 48 Climbing Albuquerque Center
01:32PM 33.3317 -113.0481 103° East 517 595 37,000  Level Albuquerque Center
01:33PM 33.2986 -112.8806 103° East 517 595 37,000  Level Albuquerque Center
01:34PM 33.2589 -112.6786 103° East 517 595 37,000  Level Albuquerque Center
01:35PM 33.2281 -112.5214 103° East 518 596 37,000  Level Albuquerque Center
01:36PM 33.1947 -112.3547 103° East 518 596 37,000  Level Albuquerque Center
01:37PM 33.1619 -112.1897 103° East 518 596 37,000  Level Albuquerque Center
01:39PM 33.1225 -111.9956 104° East 513 590 37,000  Level Albuquerque Center
01:40PM 33.0894 -111.8333 104° East 511 588 37,000  Level Albuquerque Center
01:41PM 33.0567 -111.6719 104° East 509 586 37,000  Level Albuquerque Center
01:42PM 33.0239 -111.5111 104° East 507 583 37,000  Level Albuquerque Center
01:43PM 32.9903 -111.3489 104° East 507 583 37,000  Level Albuquerque Center
01:44PM 32.9497 -111.1542 104° East 507 583 37,000  Level Albuquerque Center
01:45PM 32.9150 -110.9914 104° East 509 586 37,000  Level Albuquerque Center
01:46PM 32.8800 -110.8267 104° East 510 587 37,000  Level Albuquerque Center
01:47PM 32.8456 -110.6617 104° East 510 587 37,000  Level Albuquerque Center
01:48PM 32.8094 -110.4978 105° East 510 587 37,000  Level Albuquerque Center
01:49PM 32.7656 -110.2997 105° East 513 590 37,000  Level Albuquerque Center
01:50PM 32.7294 -110.1350 105° East 514 592 37,000  Level Albuquerque Center
01:51PM 32.6928 -109.9692 105° East 516 594 37,000  Level Albuquerque Center
01:52PM 32.6561 -109.8047 105° East 516 594 37,000  Level Albuquerque Center
01:53PM 32.6183 -109.6397 105° East 518 596 37,000  Level Albuquerque Center
01:54PM 32.5733 -109.4431 105° East 519 597 37,000  Level Albuquerque Center
01:55PM 32.5375 -109.2786 104° East 519 597 37,000  Level Albuquerque Center
01:56PM 32.5000 -109.1161 105° East 519 597 37,000  Level Albuquerque Center
01:57PM 32.4619 -108.9539 105° East 519 597 37,000  Level Albuquerque Center
01:58PM 32.4244 -108.7900 105° East 519 597 37,000  Level Albuquerque Center
01:59PM 32.3789 -108.5911 105° East 520 598 37,000  Level Albuquerque Center
02:00PM 32.3394 -108.4242 106° East 522 601 37,000 -48 Level Albuquerque Center
02:01PM 32.3006 -108.2586 105° East 522 601 36,900 -48 Descending Albuquerque Center
02:02PM 32.2614 -108.0942 106° East 522 601 36,900 48 Level Albuquerque Center
02:03PM 32.2214 -107.9300 106° East 522 601 37,000 48 Climbing Albuquerque Center
02:04PM 32.1828 -107.7650 105° East 523 602 37,000 -48 Level Albuquerque Center
02:05PM 32.1347 -107.5672 106° East 524 603 36,900 -48 Descending Albuquerque Center
02:06PM 32.0947 -107.4033 106° East 524 603 36,900 48 Level Albuquerque Center
02:08PM 32.0561 -107.2403 106° East 524 603 37,000 48 Climbing Albuquerque Center
02:09PM 32.0167 -107.0789 106° East 523 602 37,000 -48 Level Albuquerque Center
02:10PM 31.9689 -106.8836 106° East 523 602 36,900  Descending Albuquerque Center
02:11PM 31.9278 -106.7211 107° East 522 601 37,000  Climbing Albuquerque Center
02:12PM 31.8867 -106.5606 107° East 522 601 36,900  Descending Albuquerque Center
02:13PM 31.8439 -106.3975 107° East 522 601 37,000  Climbing Albuquerque Center
02:14PM 31.8011 -106.2322 107° East 523 602 36,900  Descending Albuquerque Center
02:15PM 31.7536 -106.0339 106° East 525 604 37,000 48 Climbing Albuquerque Center
02:16PM 31.7128 -105.8694 106° East 524 603 37,000 -48 Level Albuquerque Center
02:17PM 31.6722 -105.7064 106° East 523 602 36,900  Descending Albuquerque Center
02:18PM 31.6311 -105.5467 107° East 514 592 37,000 48 Climbing Albuquerque Center
02:19PM 31.5908 -105.3875 107° East 511 588 37,000 -48 Level Albuquerque Center
02:20PM 31.5517 -105.2278 106° East 511 588 36,900  Descending Albuquerque Center
02:22PM 31.4633 -104.8850 107° East 499 574 37,000  Climbing Albuquerque Center
02:23PM 31.4233 -104.7306 107° East 496 571 36,900  Descending Albuquerque Center
02:24PM 31.3831 -104.5742 107° East 496 571 37,000 48 Climbing Albuquerque Center
02:25PM 31.3419 -104.4186 107° East 496 571 37,000 -32 Level Albuquerque Center
02:27PM 31.2625 -104.1092 107° East 496 571 36,900  Descending Albuquerque Center
02:28PM 31.2200 -103.9578 108° East 494 568 37,000 48 Climbing Albuquerque Center
02:29PM 31.1694 -103.7725 108° East 495 570 37,000  Level Albuquerque Center
02:30PM 31.1294 -103.6294 108° East 497 572 37,000  Level Albuquerque Center
02:31PM 31.0864 -103.4753 108° East 498 573 37,000 -49 Level Albuquerque Center
02:32PM 31.0436 -103.3211 108° East 500 575 36,900 -49 Descending Albuquerque Center
02:33PM 30.9956 -103.1386 107° East 496 571 36,900 48 Level Albuquerque Center
02:34PM 30.9536 -102.9869 108° East 494 568 37,000 48 Climbing Albuquerque Center
02:35PM 30.9142 -102.8339 107° East 494 568 37,000  Level Albuquerque Center
02:36PM 30.8739 -102.6781 107° East 501 577 37,000  Level Albuquerque Center
02:37PM 30.8339 -102.5228 107° East 503 579 37,000  Level Albuquerque Center
02:40PM 30.7428 -102.1778 107° East 508 585 37,000 -32 Level Albuquerque Center
02:41PM 30.7014 -102.0203 107° East 510 587 36,900 -45 Descending Albuquerque Center
02:42PM 30.6531 -101.8325 107° East 512 589 36,900 45 Level Houston Center
02:43PM 30.6103 -101.6758 108° East 512 589 37,000 48 Climbing Houston Center
02:44PM 30.5664 -101.5111 107° East 512 589 37,000  Level Houston Center
02:45PM 30.5236 -101.3550 108° East 512 589 37,000 -48 Level Houston Center
02:46PM 30.4808 -101.2000 108° East 511 588 36,900  Descending Houston Center
02:47PM 30.4342 -101.0228 107° East 501 577 37,000  Climbing Houston Center
02:48PM 30.3894 -100.8639 108° East 499 574 36,900  Descending Houston Center
02:49PM 30.3478 -100.7117 108° East 499 574 37,000  Climbing Houston Center
02:50PM 30.3061 -100.5594 108° East 498 573 36,900  Descending Houston Center
02:51PM 30.2636 -100.4086 108° East 495 570 37,000  Climbing Houston Center
02:52PM 30.2217 -100.2567 108° East 492 566 36,900  Descending Houston Center
02:53PM 30.1786 -100.1025 108° East 492 566 37,000 48 Climbing Houston Center
02:54PM 30.1261 -99.9206 108° East 492 566 37,000  Level Houston Center
02:55PM 30.0819 -99.7686 109° East 493 567 37,000  Level Houston Center
02:56PM 30.0383 -99.6172 108° East 496 571 37,000  Level Houston Center
02:57PM 29.9950 -99.4650 108° East 496 571 37,000  Level Houston Center
02:58PM 29.9528 -99.3156 108° East 493 567 37,000 -48 Level Houston Center
02:59PM 29.9061 -99.1656 110° East 497 572 36,900  Descending Houston Center
03:00PM 29.8408 -98.9914 113° Southeast 493 567 37,000 48 Climbing Houston Center
03:01PM 29.7875 -98.8478 113° Southeast 490 564 37,000  Level Houston Center
03:02PM 29.7308 -98.6939 113° Southeast 484 557 37,000  Level Houston Center
03:04PM 29.6789 -98.5528 113° Southeast 483 556 37,000  Level Houston Center
03:05PM 29.6472 -98.3983 103° East 504 580 37,000  Level Houston Center
03:06PM 29.6489 -98.2269 89° East 498 573 37,000  Level Houston Center
03:07PM 29.6383 -98.0717 94° East 492 566 37,000 -339 Level Houston Center
03:08PM 29.5694 -97.9275 119° Southeast 482 555 36,300 -720 Descending Houston Center
03:09PM 29.4931 -97.8183 129° Southeast 474 545 35,500 -864 Descending Houston Center
03:10PM 29.4464 -97.6708 110° East 492 566 34,500 -1,403 Descending Houston Center
03:11PM 29.4256 -97.5142 99° East 500 575 32,600 -2,516 Descending Houston Center
03:12PM 29.4192 -97.3542 93° East 509 586 29,300 -2,806 Descending Houston Center
03:13PM 29.4414 -97.1675 82° East 494 568 26,800 -2,274 Descending Houston Center
03:14PM 29.4581 -97.0189 83° East 474 545 24,600 -2,081 Descending Houston Center
03:15PM 29.4739 -96.8725 83° East 455 524 22,500 -1,968 Descending Houston Center
03:16PM 29.4878 -96.7317 84° East 441 507 20,500 -1,948 Descending Houston Center
03:16PM 29.4894 -96.6981 87° East 432 497 20,000 -1,935 Descending Houston Center
03:17PM 29.5019 -96.5972 82° East 427 491 18,500 -2,152 Descending Houston Center
03:18PM 29.5119 -96.4894 84° East 410 472 16,700 -2,032 Descending Houston Center
03:18PM 29.5156 -96.4678 79° East 414 476 16,400 -1,650 Descending Houston Center
03:19PM 29.5267 -96.3447 84° East 391 450 14,500 -1,946 Descending Houston Center
03:20PM 29.5389 -96.2347 83° East 378 435 12,800 -2,129 Descending Houston Center
03:20PM 29.5422 -96.2019 83° East 378 435 12,300 -787 Descending Houston Center
03:21PM 29.5706 -96.1158 69° East 365 420 12,000 -387 Descending Houston Center
03:21PM 29.5828 -96.0956 55° Northeast 368 423 11,900  Descending Houston Center
03:22PM 29.6225 -96.0139 61° Northeast 373 429 12,000 95 Climbing Houston Center
03:22PM 29.6336 -95.9944 57° Northeast 371 427 12,000 -492 Level Houston Center
03:23PM 29.6747 -95.9119 60° Northeast 361 415 11,500 -581 Descending Houston Center
03:23PM 29.6828 -95.8950 61° Northeast 363 418 11,400 -590 Descending Houston Center
03:24PM 29.7192 -95.8225 60° Northeast 322 371 10,900 -677 Descending Houston Center
03:24PM 29.7292 -95.8053 56° Northeast 333 383 10,700 -1,235 Descending Houston Center
03:25PM 29.7711 -95.7203 60° Northeast 316 364 9,500 -1,161 Descending Houston Center
03:25PM 29.7717 -95.7169 79° East 322 371 9,500 -1,091 Level Houston Center
03:26PM 29.8100 -95.6386 61° Northeast 312 359 8,500 -1,355 Descending Houston Center
03:26PM 29.8250 -95.6131 56° Northeast 316 364 8,100 -1,309 Descending Houston Center
03:27PM 29.8492 -95.5619 61° Northeast 306 352 7,300 -1,238 Descending Houston Center
03:27PM 29.8661 -95.5281 60° Northeast 307 353 6,800 -1,068 Descending Houston Center
03:28PM 29.8944 -95.4578 65° Northeast 293 337 6,000 -774 Descending Houston Center
03:28PM 29.8972 -95.4422 78° East 292 336 6,000  Level Houston Center
03:29PM 29.8953 -95.3756 92° East 285 328 6,000 97 Level Houston Center
03:29PM 29.8967 -95.3508 86° East 285 328 6,100  Climbing Houston Center
03:30PM 29.8967 -95.2742 90° East 285 328 6,000  Descending Houston Center
03:30PM 29.8969 -95.2586 89° East 285 328 6,100 -97 Climbing Houston Center
03:31PM 29.8967 -95.1850 90° East 261 300 5,900 -194 Descending Houston Center
03:31PM 29.8967 -95.1736 90° East 269 310 5,900 -1,393 Level Houston Center
03:32PM 29.8961 -95.1106 91° East 256 295 4,600 -1,452 Descending Houston Center
03:33PM 29.8967 -95.0919 88° East 259 298 4,400 -1,500 Descending Houston Center
03:33PM 29.9033 -95.0300 83° East 253 291 3,100 -1,714 Descending Houston Center
03:34PM 29.9189 -95.0036 56° Northeast 253 291 2,600 -985 Descending Houston Center
03:34PM 29.9581 -95.0089 353° North 205 236 2,000 -484 Descending Houston Center
03:35PM 29.9661 -95.0256 299° West 226 260 2,100  Climbing Houston Center
03:35PM 29.9756 -95.0619 287° West 189 217 2,000  Descending Houston Center
03:36PM 29.9794 -95.0828 282° West 200 230 2,100  Climbing Houston Center
03:36PM 29.9769 -95.1222 266° West 186 214 2,000  Descending Houston Center
03:37PM 29.9767 -95.1422 269° West 191 220 2,100 -90 Climbing Houston Center
03:37PM 29.9769 -95.1897 270° West 187 215 1,900 -290 Descending Houston Center
03:38PM 29.9778 -95.2017 275° West 191 220 1,800 -873 Descending Houston Center
03:38PM 29.9778 -95.2428 270° West 174 200 1,100 -968 Descending Houston Center
03:39PM 29.9775 -95.2681 269° West 183 211 800 -511 Descending Houston Center
03:40PM 29.9772 -95.3136 270° West 175 201 300 -476 Descending Houston Center

Login

Don't have an account? Register now (free) for customized features, flight alerts, and more!